CDT,Max TemperatureF,Mean TemperatureF,Min TemperatureF,Max Dew PointF,MeanDew PointF,Min DewpointF,Max Humidity, Mean Humidity, Min Humidity, Max Sea Level PressureIn, Mean Sea Level PressureIn, Min Sea Level PressureIn, Max VisibilityMiles, Mean VisibilityMiles, Min VisibilityMiles, Max Wind SpeedMPH, Mean Wind SpeedMPH, Max Gust SpeedMPH,PrecipitationIn, CloudCover, Events, WindDirDegrees
2012-3-1,79,72,66,70,66,62,100,86,60,29.99,29.93,29.83,10,7,2,17,5,23,0.03,6,Rain-Thunderstorm,204
2012-3-2,80,72,64,70,66,62,100,83,54,29.84,29.77,29.69,10,9,0,29,10,47,1.66,7,Fog-Rain-Thunderstorm,205
2012-3-3,62,52,39,58,44,25,96,74,34,30.07,29.87,29.76,10,8,2,17,11,25,1.01,6,Rain-Thunderstorm,356
2012-3-4,64,49,34,39,30,22,96,52,19,30.23,30.15,30.08,10,10,10,16,5,24,0.00,0,,272
2012-3-5,75,60,44,44,39,29,90,54,18,30.38,30.32,30.24,10,10,10,9,4,,0.00,0,,300
2012-3-6,72,60,48,54,41,30,87,52,35,30.39,30.33,30.27,10,10,7,15,7,22,0.00,0,,142
2012-3-7,75,65,55,63,59,54,100,81,53,30.27,30.22,30.17,10,9,6,22,9,28,0.00,6,,147
2012-3-8,79,72,64,68,66,62,100,89,58,30.19,30.13,30.06,10,7,2,18,8,25,0.09,7,Rain-Thunderstorm,159
2012-3-9,68,60,51,68,54,39,100,91,63,30.36,30.23,30.12,10,7,2,20,8,26,1.39,7,Rain-Thunderstorm,32
2012-3-10,68,58,48,54,39,33,87,52,28,30.33,30.26,30.19,10,10,10,10,5,17,0.00,0,,69
2012-3-11,73,65,57,65,60,55,100,84,65,30.23,30.18,30.09,10,9,5,15,6,25,0.04,7,Rain,142
2012-3-12,68,64,60,65,63,60,100,96,87,30.19,30.14,30.04,10,8,2,18,9,28,0.37,5,Rain-Thunderstorm,150
2012-3-13,79,68,57,68,63,57,100,93,62,30.25,30.19,30.13,10,6,0,8,2,,0.00,5,Fog,164
2012-3-14,81,72,64,67,64,59,100,84,50,30.27,30.20,30.16,10,8,3,8,4,16,0.01,5,,173
2012-3-15,82,72,62,65,63,54,100,84,42,30.29,30.21,30.15,10,7,0,12,4,17,0.00,5,Fog,179
2012-3-16,82,70,57,66,61,57,100,82,44,30.24,30.18,30.12,10,7,0,13,2,,0.00,2,Fog,191
2012-3-17,81,70,60,66,63,56,100,85,45,30.22,30.16,30.09,10,7,0,13,3,,0.00,4,Fog,166
2012-3-18,82,72,62,67,64,58,97,79,44,30.22,30.15,30.09,10,10,5,14,6,22,0.00,4,,158
2012-3-19,78,72,66,66,64,58,97,82,54,30.12,30.04,29.93,10,10,5,20,10,26,0.00,6,,153
2012-3-20,78,72,66,67,65,63,96,82,62,29.95,29.90,29.87,10,9,4,24,12,40,0.02,7,Rain,144
2012-3-21,71,64,57,67,61,55,100,95,83,30.04,29.92,29.86,10,6,2,20,8,25,1.86,8,Rain-Thunderstorm,176
2012-3-22,71,62,53,59,55,52,100,90,55,30.05,30.00,29.96,10,7,2,7,3,,0.62,7,Rain-Thunderstorm,292
2012-3-23,80,70,57,62,57,44,100,80,28,30.05,29.98,29.93,10,7,0,7,1,,0.01,4,Fog,284
2012-3-24,78,64,52,53,49,44,97,60,31,30.02,29.97,29.92,10,10,10,14,5,18,0.00,0,,333
2012-3-25,81,64,48,55,51,47,97,63,33,30.04,29.99,29.95,10,10,5,14,3,18,0.00,0,,338
2012-3-26,82,69,57,60,55,52,90,67,38,30.09,30.03,29.99,10,10,10,6,3,,0.00,0,,24
2012-3-27,82,68,55,61,57,54,97,71,39,30.14,30.08,30.04,10,10,9,8,2,,0.00,0,,171
2012-3-28,80,68,57,65,60,56,100,86,45,30.17,30.10,30.01,10,6,0,14,1,,0.01,4,Fog,176
2012-3-29,80,70,62,65,63,58,100,86,50,30.05,29.99,29.90,10,6,0,9,2,,0.03,5,Fog-Rain,164
2012-3-30,78,70,63,69,65,62,100,90,64,29.96,29.90,29.84,10,7,0,12,1,,0.20,6,Fog-Rain-Thunderstorm,200
2012-3-31,82,72,62,66,64,60,100,85,47,29.97,29.90,29.86,10,8,2,9,3,,0.00,3,,239